Time;durP1;ratioP1;P1;durP2;ratioP2;P2;SDS_P1;SDS_P2;PMS_P1;PMS_P2;Temp;Humidity;BMP_temperature;BMP_pressure;BME280_temperature;BME280_humidity;BME280_pressure;Samples;Min_cycle;Max_cycle;Signal;HPM_P1;HPM_P2
2023/12/23 00:01:45;;;;;;;1.10;0.60;;;4.10;99.90;;;;;;5034149;28;20034;-81
2023/12/23 00:04:10;;;;;;;0.30;0.10;;;4.00;99.90;;;;;;5050888;28;20056;-81
2023/12/23 00:06:36;;;;;;;0.55;0.30;;;4.00;99.90;;;;;;5034123;28;20124;-81
2023/12/23 00:09:02;;;;;;;2.42;0.20;;;4.00;99.90;;;;;;5034245;28;20034;-81
2023/12/23 00:11:27;;;;;;;0.20;0.20;;;4.00;99.90;;;;;;5035360;28;20363;-81
2023/12/23 00:13:53;;;;;;;0.20;0.20;;;4.00;99.90;;;;;;5017532;28;20061;-80
2023/12/23 00:16:18;;;;;;;0.10;0.10;;;4.00;99.90;;;;;;5033852;28;20049;-80
2023/12/23 00:18:44;;;;;;;0.10;0.10;;;3.90;99.90;;;;;;5029868;28;20032;-80
2023/12/23 00:21:10;;;;;;;0.40;0.30;;;3.90;99.90;;;;;;5040550;28;20039;-80
2023/12/23 00:23:35;;;;;;;1.60;0.60;;;3.90;99.90;;;;;;5073971;28;20037;-80
2023/12/23 00:26:01;;;;;;;1.45;0.60;;;3.90;99.90;;;;;;5074042;28;20034;-80
2023/12/23 00:28:27;;;;;;;0.77;0.40;;;3.90;99.90;;;;;;5073866;28;20077;-80
2023/12/23 00:30:52;;;;;;;0.20;0.10;;;3.90;99.90;;;;;;5074575;28;20032;-80
2023/12/23 00:33:18;;;;;;;0.10;0.10;;;3.90;99.90;;;;;;5057060;28;20458;-80
2023/12/23 00:35:44;;;;;;;0.17;0.10;;;4.00;99.90;;;;;;5075190;28;20025;-80
2023/12/23 00:38:10;;;;;;;1.10;0.20;;;4.00;99.90;;;;;;5073736;28;20050;-80
2023/12/23 00:40:35;;;;;;;0.17;0.17;;;4.10;99.90;;;;;;5073585;28;20039;-80
2023/12/23 00:43:02;;;;;;;2.60;1.15;;;4.10;99.90;;;;;;5073443;28;20025;-80
2023/12/23 00:45:27;;;;;;;1.10;0.57;;;4.10;99.90;;;;;;5056901;28;20036;-80
2023/12/23 00:47:53;;;;;;;1.48;0.77;;;4.10;99.90;;;;;;5066690;28;20408;-80
2023/12/23 00:50:19;;;;;;;0.80;0.32;;;4.10;99.90;;;;;;5040379;28;20034;-81
2023/12/23 00:52:44;;;;;;;0.70;0.35;;;4.10;99.90;;;;;;5050081;28;20075;-81
2023/12/23 00:55:10;;;;;;;1.60;0.77;;;4.20;99.90;;;;;;5034841;28;20022;-80
2023/12/23 00:57:36;;;;;;;0.38;0.10;;;4.20;99.90;;;;;;5049915;28;20036;-80
2023/12/23 01:00:02;;;;;;;0.10;0.10;;;4.20;99.90;;;;;;5033344;28;20029;-80
2023/12/23 01:02:27;;;;;;;0.20;0.20;;;4.10;99.90;;;;;;5050176;28;20055;-80
2023/12/23 01:04:54;;;;;;;0.30;0.10;;;4.10;99.90;;;;;;5033387;28;20033;-80
2023/12/23 01:07:20;;;;;;;0.10;0.10;;;4.10;99.90;;;;;;5032979;28;20025;-80
2023/12/23 01:09:46;;;;;;;0.10;0.10;;;4.10;99.90;;;;;;5050014;28;20041;-80
2023/12/23 01:12:11;;;;;;;0.10;0.10;;;4.10;99.90;;;;;;5034497;28;20033;-80
2023/12/23 01:14:37;;;;;;;0.10;0.10;;;4.10;99.90;;;;;;5049785;28;20111;-80
2023/12/23 01:17:03;;;;;;;0.25;0.10;;;4.20;99.90;;;;;;5034761;28;20057;-80
2023/12/23 01:19:29;;;;;;;0.30;0.20;;;4.30;99.90;;;;;;5062418;28;20108;-80
2023/12/23 01:21:54;;;;;;;0.43;0.22;;;4.30;99.90;;;;;;5033221;28;20871;-80
2023/12/23 01:24:20;;;;;;;0.57;0.30;;;4.20;99.90;;;;;;5035251;28;20061;-80
2023/12/23 01:26:46;;;;;;;0.20;0.20;;;4.20;99.90;;;;;;5034713;28;20030;-80
2023/12/23 01:29:12;;;;;;;0.35;0.20;;;4.20;99.90;;;;;;5049833;28;20029;-80
2023/12/23 01:31:37;;;;;;;0.10;0.10;;;4.20;99.90;;;;;;5037675;28;20036;-80
2023/12/23 01:34:03;;;;;;;0.55;0.17;;;4.20;99.90;;;;;;5037064;28;20026;-80
2023/12/23 01:36:28;;;;;;;0.10;0.10;;;4.20;99.90;;;;;;5038231;28;20083;-80
2023/12/23 01:38:54;;;;;;;0.22;0.20;;;4.20;99.90;;;;;;5038240;28;20030;-80
2023/12/23 01:41:20;;;;;;;0.28;0.15;;;4.20;99.90;;;;;;5053485;28;20049;-80
2023/12/23 01:43:45;;;;;;;0.38;0.20;;;4.10;99.90;;;;;;5053444;28;20061;-80
2023/12/23 01:46:12;;;;;;;3.85;1.60;;;4.20;99.90;;;;;;5036441;28;20044;-80
2023/12/23 01:48:41;;;;;;;2.78;1.27;;;4.20;99.90;;;;;;5066123;28;20025;-80
2023/12/23 01:51:08;;;;;;;0.77;0.47;;;4.30;99.90;;;;;;5076622;28;20032;-80
2023/12/23 01:53:34;;;;;;;0.15;0.10;;;4.30;99.90;;;;;;5060093;28;20028;-80
2023/12/23 01:56:00;;;;;;;0.20;0.20;;;4.30;99.90;;;;;;5078255;28;20032;-80
2023/12/23 01:58:26;;;;;;;0.30;0.30;;;4.30;99.90;;;;;;5043378;28;20086;-80
2023/12/23 02:00:52;;;;;;;1.00;0.20;;;4.40;99.90;;;;;;5075899;28;20020;-80
2023/12/23 02:03:18;;;;;;;0.10;0.10;;;4.30;99.90;;;;;;5076445;28;20078;-80
2023/12/23 02:05:47;;;;;;;0.13;0.10;;;4.30;99.90;;;;;;5077621;28;20048;-80
2023/12/23 02:08:13;;;;;;;0.20;0.20;;;4.40;99.90;;;;;;5077816;28;20055;-80
2023/12/23 02:10:39;;;;;;;0.10;0.10;;;4.40;99.90;;;;;;5060317;28;20382;-80
2023/12/23 02:13:37;;;;;;;0.10;0.10;;;4.50;99.90;;;;;;5076402;28;20033;-80
2023/12/23 02:16:04;;;;;;;0.15;0.10;;;4.50;99.90;;;;;;5076124;28;20028;-80
2023/12/23 02:18:29;;;;;;;0.10;0.10;;;4.60;99.90;;;;;;5064696;28;20025;-80
2023/12/23 02:20:55;;;;;;;0.22;0.10;;;4.60;99.90;;;;;;5075222;28;20142;-80
2023/12/23 02:23:21;;;;;;;0.47;0.20;;;4.60;99.90;;;;;;5059225;28;20033;-80
2023/12/23 02:25:53;;;;;;;1.10;0.10;;;4.70;99.90;;;;;;5077817;28;20537;-80
2023/12/23 02:28:22;;;;;;;0.10;0.10;;;4.70;99.90;;;;;;5076079;28;20024;-80
2023/12/23 02:30:50;;;;;;;0.10;0.10;;;4.60;99.90;;;;;;5075740;28;20033;-80
2023/12/23 02:33:16;;;;;;;0.13;0.10;;;4.60;99.90;;;;;;5075681;28;20068;-80
2023/12/23 02:35:42;;;;;;;0.20;0.20;;;4.60;99.90;;;;;;5075858;28;20021;-80
2023/12/23 02:38:09;;;;;;;0.10;0.10;;;4.60;99.90;;;;;;5075789;28;20036;-80
2023/12/23 02:40:35;;;;;;;0.22;0.22;;;4.60;99.90;;;;;;5059149;28;20028;-80
2023/12/23 02:43:01;;;;;;;0.55;0.20;;;4.60;99.90;;;;;;5077155;28;20362;-80
2023/12/23 02:45:27;;;;;;;0.35;0.10;;;4.70;99.90;;;;;;5059071;28;20101;-80
2023/12/23 02:47:53;;;;;;;0.10;0.10;;;4.70;99.90;;;;;;5069339;28;20028;-80
2023/12/23 02:50:19;;;;;;;0.20;0.20;;;4.70;99.90;;;;;;5041454;28;20393;-80
2023/12/23 02:52:44;;;;;;;1.70;0.20;;;4.70;99.90;;;;;;5035816;28;20036;-80
2023/12/23 02:55:10;;;;;;;0.20;0.20;;;4.70;99.90;;;;;;5052667;28;20068;-80
2023/12/23 02:57:36;;;;;;;1.40;0.20;;;4.60;99.90;;;;;;5035617;28;20033;-80
2023/12/23 03:00:02;;;;;;;1.45;0.70;;;4.60;99.90;;;;;;5052075;28;20021;-80
2023/12/23 03:02:28;;;;;;;1.08;0.50;;;4.50;99.90;;;;;;5036857;28;20549;-80
2023/12/23 03:04:54;;;;;;;2.40;0.80;;;4.40;99.90;;;;;;5052811;28;20061;-81
2023/12/23 03:07:19;;;;;;;0.43;0.20;;;4.40;99.90;;;;;;5052269;28;20030;-80
2023/12/23 03:09:45;;;;;;;0.13;0.13;;;4.30;99.90;;;;;;5052134;28;20375;-80
2023/12/23 03:12:11;;;;;;;0.10;0.10;;;4.30;99.90;;;;;;5036538;28;20130;-80
2023/12/23 03:14:36;;;;;;;0.10;0.10;;;4.30;99.90;;;;;;5036917;28;20042;-80
2023/12/23 03:17:03;;;;;;;0.20;0.10;;;4.40;99.90;;;;;;5035193;28;20025;-80
2023/12/23 03:19:28;;;;;;;0.55;0.20;;;4.30;99.90;;;;;;5061754;28;20039;-79
2023/12/23 03:21:54;;;;;;;0.10;0.10;;;4.30;99.90;;;;;;5076379;28;20111;-80
2023/12/23 03:24:20;;;;;;;0.63;0.20;;;4.30;99.90;;;;;;5074985;28;20036;-80
2023/12/23 03:26:45;;;;;;;0.70;0.10;;;4.30;99.90;;;;;;5075023;28;20044;-80
2023/12/23 03:29:11;;;;;;;0.20;0.20;;;4.30;99.90;;;;;;5075970;28;20036;-80
2023/12/23 03:31:36;;;;;;;0.20;0.20;;;4.30;99.90;;;;;;5074804;28;20032;-80
2023/12/23 03:34:02;;;;;;;0.13;0.10;;;4.30;99.90;;;;;;5075131;28;20024;-80
2023/12/23 03:36:29;;;;;;;0.10;0.10;;;4.20;99.90;;;;;;5074711;28;20066;-80
2023/12/23 03:38:58;;;;;;;2.15;0.88;;;4.20;99.90;;;;;;5075988;28;20119;-80
2023/12/23 03:41:24;;;;;;;2.17;0.75;;;4.20;99.90;;;;;;5076148;28;20051;-80
2023/12/23 03:43:50;;;;;;;0.30;0.30;;;4.10;99.90;;;;;;5075958;28;20021;-80
2023/12/23 03:46:20;;;;;;;1.92;0.82;;;4.10;99.90;;;;;;5076020;28;20573;-80
2023/12/23 03:48:47;;;;;;;0.47;0.30;;;4.10;99.90;;;;;;5059510;28;20033;-80
2023/12/23 03:51:13;;;;;;;0.55;0.30;;;4.10;99.90;;;;;;5034839;28;20023;-80
2023/12/23 03:53:38;;;;;;;0.20;0.20;;;4.10;99.90;;;;;;5050798;28;20025;-80
2023/12/23 03:56:04;;;;;;;0.20;0.20;;;4.10;99.90;;;;;;5034648;28;20029;-80
2023/12/23 03:58:30;;;;;;;0.10;0.10;;;4.10;99.90;;;;;;5034447;28;20025;-80
2023/12/23 04:00:56;;;;;;;0.25;0.10;;;4.10;99.90;;;;;;5050885;28;20029;-80
2023/12/23 04:03:21;;;;;;;0.30;0.20;;;4.10;99.90;;;;;;5034709;28;20025;-80
2023/12/23 04:05:47;;;;;;;0.10;0.10;;;4.00;99.90;;;;;;5034249;28;20224;-80
2023/12/23 04:08:13;;;;;;;0.28;0.28;;;4.00;99.90;;;;;;5051179;28;20439;-80
2023/12/23 04:10:38;;;;;;;0.10;0.10;;;4.00;99.90;;;;;;5035890;28;20032;-80
2023/12/23 04:13:04;;;;;;;0.77;0.22;;;4.00;99.90;;;;;;5034688;28;20394;-80
2023/12/23 04:15:30;;;;;;;0.20;0.20;;;4.00;99.90;;;;;;5034113;28;20021;-80
2023/12/23 04:17:55;;;;;;;0.40;0.30;;;4.00;99.90;;;;;;5057781;28;20400;-80
2023/12/23 04:20:21;;;;;;;0.35;0.15;;;3.90;99.90;;;;;;5056534;28;20116;-80
2023/12/23 04:22:48;;;;;;;0.20;0.20;;;3.90;99.90;;;;;;5034200;28;20498;-80
2023/12/23 04:25:16;;;;;;;0.10;0.10;;;3.90;99.90;;;;;;5050997;28;20389;-80
2023/12/23 04:27:42;;;;;;;0.10;0.10;;;3.80;99.90;;;;;;5033744;28;20022;-80
2023/12/23 04:30:08;;;;;;;0.43;0.25;;;3.80;99.90;;;;;;5033964;28;20030;-80
2023/12/23 04:32:34;;;;;;;0.10;0.10;;;3.80;99.90;;;;;;5035307;28;20032;-80
2023/12/23 04:34:59;;;;;;;0.82;0.50;;;3.80;99.90;;;;;;5035310;28;20055;-80
2023/12/23 04:37:26;;;;;;;0.20;0.20;;;3.80;99.90;;;;;;5033624;28;20026;-80
2023/12/23 04:39:53;;;;;;;0.30;0.30;;;3.90;99.90;;;;;;5035533;28;20030;-80
2023/12/23 04:42:19;;;;;;;0.20;0.20;;;3.90;99.90;;;;;;5050505;28;20137;-80
2023/12/23 04:44:44;;;;;;;0.20;0.20;;;3.80;99.90;;;;;;5035221;28;20144;-80
2023/12/23 04:47:10;;;;;;;2.42;1.10;;;3.80;99.90;;;;;;5033868;28;20501;-80
2023/12/23 04:49:38;;;;;;;1.10;0.60;;;3.80;99.90;;;;;;5063270;28;20028;-78
2023/12/23 04:52:04;;;;;;;0.82;0.60;;;3.80;99.90;;;;;;5075018;28;20025;-80
2023/12/23 04:54:29;;;;;;;0.38;0.20;;;3.80;99.90;;;;;;5075110;28;20031;-80
2023/12/23 04:56:55;;;;;;;0.22;0.20;;;3.70;99.90;;;;;;5075252;28;20025;-80
2023/12/23 04:59:20;;;;;;;0.10;0.10;;;3.70;99.90;;;;;;5075777;28;20082;-80
2023/12/23 05:01:46;;;;;;;0.55;0.20;;;3.80;99.90;;;;;;5073405;28;20060;-80
2023/12/23 05:04:12;;;;;;;0.17;0.17;;;3.70;99.90;;;;;;5074384;28;20020;-80
2023/12/23 05:06:38;;;;;;;0.10;0.10;;;3.80;99.90;;;;;;5077579;28;20029;-80
2023/12/23 05:09:05;;;;;;;0.40;0.30;;;3.80;99.90;;;;;;5078355;28;20063;-80
2023/12/23 05:11:31;;;;;;;0.57;0.38;;;3.70;99.90;;;;;;5078817;28;20028;-80
2023/12/23 05:13:57;;;;;;;1.25;0.70;;;3.80;99.90;;;;;;5061118;28;20025;-80
2023/12/23 05:16:22;;;;;;;1.83;0.85;;;3.70;99.90;;;;;;5078494;28;20029;-80
2023/12/23 05:18:48;;;;;;;2.33;0.80;;;3.70;99.90;;;;;;5066376;28;20120;-80
2023/12/23 05:21:14;;;;;;;2.88;1.30;;;3.60;99.90;;;;;;5078936;28;20029;-80
2023/12/23 05:23:40;;;;;;;2.28;1.45;;;3.60;99.90;;;;;;5078331;28;20036;-80
2023/12/23 05:26:06;;;;;;;1.55;1.20;;;3.60;99.90;;;;;;5077279;28;20027;-80
2023/12/23 05:28:31;;;;;;;2.22;1.40;;;3.60;99.90;;;;;;5077403;28;20025;-80
2023/12/23 05:30:57;;;;;;;0.30;0.30;;;3.60;99.90;;;;;;5078271;28;20021;-80
2023/12/23 05:33:24;;;;;;;0.20;0.20;;;3.60;99.90;;;;;;5060765;28;20440;-80
2023/12/23 05:35:51;;;;;;;1.65;1.27;;;3.60;99.90;;;;;;5078083;28;20032;-81
2023/12/23 05:38:16;;;;;;;1.60;1.10;;;3.50;99.90;;;;;;5061652;28;20036;-80
2023/12/23 05:40:42;;;;;;;1.13;0.60;;;3.50;99.90;;;;;;5079175;28;20111;-80
2023/12/23 05:43:08;;;;;;;0.57;0.43;;;3.40;99.90;;;;;;5062023;28;20033;-80
2023/12/23 05:45:33;;;;;;;1.58;0.40;;;3.40;99.90;;;;;;5078452;28;20034;-80
2023/12/23 05:47:59;;;;;;;0.65;0.30;;;3.40;99.90;;;;;;5071430;28;20033;-80
2023/12/23 05:50:25;;;;;;;0.38;0.30;;;3.40;99.90;;;;;;5073420;28;20392;-80
2023/12/23 05:52:50;;;;;;;0.47;0.30;;;3.30;99.90;;;;;;5078543;28;20032;-80
2023/12/23 05:55:16;;;;;;;0.47;0.30;;;3.40;99.90;;;;;;5077158;28;20024;-80
2023/12/23 05:57:42;;;;;;;0.50;0.20;;;3.30;99.90;;;;;;5060456;28;20024;-79
2023/12/23 06:00:08;;;;;;;0.30;0.30;;;3.30;99.90;;;;;;5060359;28;20021;-80
2023/12/23 06:02:35;;;;;;;8.55;3.90;;;3.30;99.90;;;;;;5077869;28;20039;-80
2023/12/23 06:05:00;;;;;;;5.18;2.80;;;3.30;99.90;;;;;;5076341;28;20025;-79
2023/12/23 06:07:26;;;;;;;1.33;0.85;;;3.30;99.90;;;;;;5077760;28;20112;-80
2023/12/23 06:09:52;;;;;;;0.80;0.50;;;3.30;99.90;;;;;;5043471;28;20032;-80
2023/12/23 06:12:17;;;;;;;0.65;0.45;;;3.20;99.90;;;;;;5076911;28;20071;-80
2023/12/23 06:14:43;;;;;;;0.40;0.20;;;3.20;99.90;;;;;;5077047;28;20385;-79
2023/12/23 06:17:11;;;;;;;0.40;0.30;;;3.20;99.90;;;;;;5058347;28;20036;-79
2023/12/23 06:19:36;;;;;;;0.20;0.20;;;3.20;99.90;;;;;;5066012;28;20025;-80
2023/12/23 06:22:02;;;;;;;0.52;0.20;;;3.20;99.90;;;;;;5075932;28;20043;-80
2023/12/23 06:24:28;;;;;;;0.43;0.40;;;3.20;99.90;;;;;;5060081;28;20396;-80
2023/12/23 06:26:53;;;;;;;0.20;0.20;;;3.20;99.90;;;;;;5077898;28;20085;-79
2023/12/23 06:29:21;;;;;;;0.73;0.20;;;3.20;99.90;;;;;;5076582;28;20181;-80
2023/12/23 06:31:47;;;;;;;0.30;0.30;;;3.20;99.90;;;;;;5059831;28;20033;-81
2023/12/23 06:34:12;;;;;;;0.90;0.47;;;3.20;99.90;;;;;;5076153;28;20388;-81
2023/12/23 06:36:38;;;;;;;3.60;1.67;;;3.20;99.90;;;;;;5077103;28;20134;-80
2023/12/23 06:39:04;;;;;;;1.58;0.68;;;3.20;99.90;;;;;;5077636;28;20024;-81
2023/12/23 06:41:30;;;;;;;2.33;1.00;;;3.20;99.90;;;;;;5059436;28;20024;-81
2023/12/23 06:43:55;;;;;;;2.85;1.35;;;3.20;99.90;;;;;;5075599;28;20032;-81
2023/12/23 06:46:21;;;;;;;0.85;0.52;;;3.20;99.90;;;;;;5075321;28;20600;-81
2023/12/23 06:48:47;;;;;;;0.32;0.30;;;3.20;99.90;;;;;;5062734;28;20091;-80
2023/12/23 06:51:13;;;;;;;0.55;0.40;;;3.10;99.90;;;;;;5058783;28;20044;-80
2023/12/23 06:53:38;;;;;;;0.77;0.43;;;3.10;99.90;;;;;;5059211;28;20027;-80
2023/12/23 06:56:05;;;;;;;0.45;0.30;;;3.20;99.90;;;;;;5076931;28;20063;-80
2023/12/23 06:58:31;;;;;;;1.13;0.45;;;3.20;99.90;;;;;;5076780;28;20025;-80
2023/12/23 07:00:56;;;;;;;0.43;0.30;;;3.10;99.90;;;;;;5058417;28;20503;-80
2023/12/23 07:03:22;;;;;;;0.68;0.30;;;3.10;99.90;;;;;;5075650;28;20051;-80
2023/12/23 07:05:48;;;;;;;0.65;0.30;;;3.10;99.90;;;;;;5042331;28;20033;-80
2023/12/23 07:08:13;;;;;;;0.20;0.20;;;3.10;99.90;;;;;;5058902;28;20080;-81
2023/12/23 07:10:39;;;;;;;0.85;0.35;;;3.10;99.90;;;;;;5075810;28;20074;-80
2023/12/23 07:13:05;;;;;;;0.95;0.50;;;3.10;99.90;;;;;;5058643;28;20025;-80
2023/12/23 07:15:30;;;;;;;0.77;0.40;;;3.10;99.90;;;;;;5075383;28;20074;-80
2023/12/23 07:17:56;;;;;;;0.47;0.30;;;3.10;99.90;;;;;;5051575;28;20037;-80
2023/12/23 07:20:22;;;;;;;1.00;0.35;;;3.10;99.90;;;;;;5086679;28;20108;-80
2023/12/23 07:22:48;;;;;;;0.45;0.32;;;3.10;99.90;;;;;;5058418;28;20066;-80
2023/12/23 07:25:13;;;;;;;1.05;0.30;;;3.10;99.90;;;;;;5076725;28;20029;-80
2023/12/23 07:27:39;;;;;;;0.98;0.40;;;3.10;99.90;;;;;;5075357;28;20074;-80
2023/12/23 07:30:05;;;;;;;0.45;0.38;;;3.10;99.90;;;;;;5076501;28;20075;-81
2023/12/23 07:32:31;;;;;;;0.47;0.35;;;3.10;99.90;;;;;;5075317;28;20373;-81
2023/12/23 07:34:57;;;;;;;0.35;0.30;;;3.10;99.90;;;;;;5059184;28;20050;-79
2023/12/23 07:37:22;;;;;;;0.57;0.38;;;3.10;99.90;;;;;;5076728;28;20035;-79
2023/12/23 07:39:48;;;;;;;0.57;0.38;;;3.10;99.90;;;;;;5075779;28;20041;-79
2023/12/23 07:42:14;;;;;;;1.15;0.30;;;3.10;99.90;;;;;;5058541;28;20078;-79
2023/12/23 07:44:39;;;;;;;0.70;0.40;;;3.10;99.90;;;;;;5058600;28;20034;-79
2023/12/23 07:47:05;;;;;;;0.50;0.40;;;3.00;99.90;;;;;;5075583;28;20060;-79
2023/12/23 07:49:32;;;;;;;0.55;0.32;;;3.00;99.90;;;;;;5049826;28;20032;-79
2023/12/23 07:51:58;;;;;;;0.77;0.50;;;3.10;99.90;;;;;;5075561;28;20033;-79
2023/12/23 07:54:24;;;;;;;0.80;0.43;;;3.10;99.90;;;;;;5074447;28;20032;-79
2023/12/23 07:56:50;;;;;;;0.60;0.30;;;3.10;99.90;;;;;;5074534;28;20377;-79
2023/12/23 07:59:16;;;;;;;0.85;0.40;;;3.10;99.90;;;;;;5057412;28;20028;-79
2023/12/23 08:01:45;;;;;;;0.85;0.40;;;3.10;99.90;;;;;;5074384;28;20159;-79
2023/12/23 08:04:12;;;;;;;1.83;0.40;;;3.10;99.90;;;;;;5074518;28;20489;-79
2023/12/23 08:06:38;;;;;;;0.60;0.30;;;3.10;99.90;;;;;;5073779;28;20523;-79
2023/12/23 08:09:04;;;;;;;0.90;0.40;;;3.10;99.90;;;;;;5074254;28;20033;-79
2023/12/23 08:11:30;;;;;;;0.30;0.30;;;3.10;99.90;;;;;;5075023;28;20036;-79
2023/12/23 08:13:56;;;;;;;1.25;0.30;;;3.10;99.90;;;;;;5075419;28;20389;-79
2023/12/23 08:16:21;;;;;;;0.80;0.40;;;3.10;99.90;;;;;;5073977;28;20028;-79
2023/12/23 08:18:47;;;;;;;1.25;0.40;;;3.10;99.90;;;;;;5059760;28;20512;-79
2023/12/23 08:21:14;;;;;;;0.45;0.30;;;3.10;99.90;;;;;;5017424;28;20505;-79
2023/12/23 08:23:39;;;;;;;1.95;0.70;;;3.10;99.90;;;;;;5033908;28;20057;-79
2023/12/23 08:26:05;;;;;;;1.20;0.50;;;3.20;99.90;;;;;;5035495;28;20057;-79
2023/12/23 08:28:31;;;;;;;0.60;0.40;;;3.20;99.90;;;;;;5035076;28;20030;-79
2023/12/23 08:30:56;;;;;;;0.95;0.40;;;3.20;99.90;;;;;;5035192;28;20031;-79
2023/12/23 08:33:22;;;;;;;0.57;0.38;;;3.20;99.90;;;;;;5033747;28;20134;-79
2023/12/23 08:35:48;;;;;;;0.70;0.47;;;3.20;99.90;;;;;;5050567;28;20021;-79
2023/12/23 08:38:14;;;;;;;0.73;0.40;;;3.20;99.90;;;;;;5034872;28;20112;-79
2023/12/23 08:40:40;;;;;;;0.60;0.30;;;3.30;99.90;;;;;;5033496;28;20053;-79
2023/12/23 08:43:06;;;;;;;0.77;0.50;;;3.20;99.90;;;;;;5034912;28;20034;-79
2023/12/23 08:45:31;;;;;;;0.68;0.40;;;3.20;99.90;;;;;;5050735;28;20030;-79
2023/12/23 08:47:57;;;;;;;0.75;0.40;;;3.30;99.90;;;;;;5040612;28;20040;-79
2023/12/23 08:50:23;;;;;;;1.13;0.50;;;3.30;99.90;;;;;;5039988;28;20036;-79
2023/12/23 08:52:49;;;;;;;0.60;0.47;;;3.30;99.90;;;;;;5050156;28;20060;-79
2023/12/23 08:55:15;;;;;;;1.73;0.90;;;3.30;99.90;;;;;;5049864;28;20030;-79
2023/12/23 08:57:41;;;;;;;2.10;0.80;;;3.30;99.90;;;;;;5035524;28;20079;-80
2023/12/23 09:00:07;;;;;;;0.70;0.47;;;3.30;99.90;;;;;;5036242;28;20413;-79
2023/12/23 09:02:34;;;;;;;1.33;0.55;;;3.30;99.90;;;;;;5034441;28;20025;-79
2023/12/23 09:05:00;;;;;;;3.10;1.20;;;3.30;99.90;;;;;;5034690;28;20025;-79
2023/12/23 09:07:26;;;;;;;1.40;0.63;;;3.30;99.90;;;;;;5034801;28;20040;-79
2023/12/23 09:09:52;;;;;;;1.23;0.60;;;3.30;99.90;;;;;;5051626;28;20025;-79
2023/12/23 09:12:19;;;;;;;1.75;0.52;;;3.40;99.90;;;;;;5034713;28;20088;-79
2023/12/23 09:14:45;;;;;;;5.60;2.45;;;3.40;99.90;;;;;;5049511;28;20084;-79
2023/12/23 09:17:11;;;;;;;3.97;2.40;;;3.40;99.90;;;;;;5034961;28;20044;-79
2023/12/23 09:19:37;;;;;;;4.00;2.35;;;3.50;99.90;;;;;;5045270;28;20124;-79
2023/12/23 09:22:03;;;;;;;1.90;1.25;;;3.50;99.90;;;;;;5034443;28;20037;-79
2023/12/23 09:24:28;;;;;;;4.72;2.47;;;3.50;99.90;;;;;;5016961;28;20060;-79
2023/12/23 09:26:54;;;;;;;12.80;6.05;;;3.50;99.90;;;;;;5050547;28;20389;-79
2023/12/23 09:29:20;;;;;;;14.10;6.85;;;3.60;99.90;;;;;;5033515;28;20042;-79
2023/12/23 09:31:45;;;;;;;1.00;0.60;;;3.50;99.90;;;;;;5049536;28;20026;-79
2023/12/23 09:34:11;;;;;;;2.80;1.85;;;3.50;99.90;;;;;;5033411;28;20601;-79
2023/12/23 09:36:37;;;;;;;2.53;1.60;;;3.50;99.90;;;;;;5032960;28;20026;-79
2023/12/23 09:39:04;;;;;;;2.53;1.70;;;3.50;99.90;;;;;;5050349;28;20028;-79
2023/12/23 09:41:30;;;;;;;2.42;1.83;;;3.60;99.90;;;;;;5033150;28;20037;-79
2023/12/23 09:43:56;;;;;;;2.30;1.50;;;3.60;99.90;;;;;;5049725;28;20120;-79
2023/12/23 09:46:22;;;;;;;3.83;1.80;;;3.60;99.90;;;;;;5034175;28;20379;-79
2023/12/23 09:48:48;;;;;;;3.58;2.00;;;3.60;99.90;;;;;;5066904;28;20028;-80
2023/12/23 09:51:16;;;;;;;3.05;1.67;;;3.60;99.90;;;;;;5073834;28;20558;-80
2023/12/23 09:53:46;;;;;;;0.98;0.50;;;3.60;99.90;;;;;;5077997;28;20021;-80
2023/12/23 09:56:11;;;;;;;4.15;2.42;;;3.50;99.90;;;;;;5078047;28;20489;-80
2023/12/23 09:58:37;;;;;;;4.78;3.08;;;3.50;99.90;;;;;;5076264;28;20032;-80
2023/12/23 10:01:03;;;;;;;2.00;1.40;;;3.50;99.90;;;;;;5076293;28;20366;-80
2023/12/23 10:03:28;;;;;;;7.53;6.70;;;3.60;99.90;;;;;;5076773;28;20028;-80
2023/12/23 10:06:00;;;;;;;20.55;14.35;;;3.60;99.90;;;;;;5060071;28;20032;-80
2023/12/23 10:08:26;;;;;;;5.05;3.80;;;3.60;99.90;;;;;;5077893;28;20103;-80
2023/12/23 10:10:52;;;;;;;9.82;6.40;;;3.50;99.90;;;;;;5060013;28;20561;-80
2023/12/23 10:13:18;;;;;;;11.80;6.80;;;3.50;99.90;;;;;;5077482;28;20029;-80
2023/12/23 10:15:45;;;;;;;7.32;4.93;;;3.50;99.90;;;;;;5076208;28;20042;-80
2023/12/23 10:18:11;;;;;;;2.65;1.58;;;3.50;99.90;;;;;;5050354;28;20032;-80
2023/12/23 10:20:37;;;;;;;8.05;5.93;;;3.50;99.90;;;;;;5089456;28;20047;-80
2023/12/23 10:23:03;;;;;;;3.38;1.92;;;3.50;99.90;;;;;;5077517;28;20044;-80
2023/12/23 10:25:32;;;;;;;11.77;8.25;;;3.50;99.90;;;;;;5077285;28;20431;-80
2023/12/23 10:28:03;;;;;;;1.60;1.00;;;3.50;99.90;;;;;;5076394;28;20029;-80
2023/12/23 10:30:34;;;;;;;7.82;4.30;;;3.50;99.90;;;;;;5076225;28;20549;-80
2023/12/23 10:33:07;;;;;;;21.55;10.23;;;3.40;99.90;;;;;;5076885;28;20037;-80
2023/12/23 10:35:43;;;;;;;16.33;7.78;;;3.40;99.90;;;;;;5076030;28;20028;-80
2023/12/23 10:38:10;;;;;;;4.95;2.30;;;3.40;99.90;;;;;;5077039;28;20044;-80
2023/12/23 10:40:36;;;;;;;5.65;3.50;;;3.40;99.90;;;;;;5076837;28;20504;-80
2023/12/23 10:43:03;;;;;;;4.28;2.50;;;3.50;99.90;;;;;;5075989;28;20043;-80
2023/12/23 10:45:30;;;;;;;15.70;10.30;;;3.40;99.90;;;;;;5075797;28;20035;-80
2023/12/23 10:48:00;;;;;;;15.68;10.00;;;3.40;99.90;;;;;;5068188;28;20036;-80
2023/12/23 10:50:26;;;;;;;11.63;6.78;;;3.50;99.90;;;;;;5040336;28;20033;-80
2023/12/23 10:52:52;;;;;;;8.32;5.00;;;3.40;99.90;;;;;;5035635;28;20033;-80
2023/12/23 10:55:23;;;;;;;5.82;3.75;;;3.40;99.90;;;;;;5036954;28;20025;-80
2023/12/23 10:57:51;;;;;;;3.33;2.08;;;3.40;99.90;;;;;;5036880;28;20371;-80
2023/12/23 11:00:17;;;;;;;6.38;1.80;;;3.40;99.90;;;;;;5036018;28;20049;-80
2023/12/23 11:02:44;;;;;;;3.75;1.52;;;3.40;99.90;;;;;;5051916;28;20033;-80
2023/12/23 11:05:12;;;;;;;3.90;2.05;;;3.30;99.90;;;;;;5036957;28;20053;-80
2023/12/23 11:07:45;;;;;;;5.00;3.08;;;3.40;99.90;;;;;;5035202;28;20021;-80
2023/12/23 11:10:12;;;;;;;8.57;5.50;;;3.30;99.90;;;;;;5036763;28;20087;-80
2023/12/23 11:12:39;;;;;;;5.05;3.20;;;3.40;99.90;;;;;;5035559;28;20056;-79
2023/12/23 11:15:05;;;;;;;5.70;2.95;;;3.50;99.90;;;;;;5051768;28;20022;-79
2023/12/23 11:17:31;;;;;;;4.05;2.33;;;3.50;99.90;;;;;;5039664;28;20358;-79
2023/12/23 11:20:01;;;;;;;4.78;2.47;;;3.50;99.90;;;;;;5043778;28;20041;-79
2023/12/23 11:22:29;;;;;;;4.00;2.33;;;3.40;99.90;;;;;;5036211;28;20037;-79
2023/12/23 11:24:55;;;;;;;6.78;2.53;;;3.40;99.90;;;;;;5036200;28;20108;-79
2023/12/23 11:27:34;;;;;;;3.92;2.28;;;3.40;99.90;;;;;;5036844;28;20060;-79
2023/12/23 11:30:09;;;;;;;4.25;2.13;;;3.40;99.90;;;;;;5036191;28;20600;-80
2023/12/23 11:32:40;;;;;;;5.10;2.75;;;3.40;99.90;;;;;;5034875;28;20029;-79
2023/12/23 11:35:12;;;;;;;10.68;6.22;;;3.40;99.90;;;;;;5036141;28;20025;-79
2023/12/23 11:37:46;;;;;;;10.45;5.03;;;3.50;99.90;;;;;;5036404;28;20072;-79
2023/12/23 11:40:14;;;;;;;6.97;3.65;;;3.50;99.90;;;;;;5036342;28;20072;-79
2023/12/23 11:42:41;;;;;;;6.72;3.33;;;3.50;99.90;;;;;;5034795;28;20394;-79
2023/12/23 11:45:08;;;;;;;5.75;3.10;;;3.50;99.90;;;;;;5051396;28;20044;-80
2023/12/23 11:47:34;;;;;;;4.45;2.65;;;3.50;99.90;;;;;;5039675;28;20489;-80
2023/12/23 11:49:59;;;;;;;7.25;2.97;;;3.50;99.90;;;;;;5044175;28;20041;-80
2023/12/23 11:52:25;;;;;;;5.82;3.45;;;3.60;99.90;;;;;;5035617;28;20025;-80
2023/12/23 11:54:52;;;;;;;5.55;3.30;;;3.60;99.90;;;;;;5051405;28;20025;-80
2023/12/23 11:57:18;;;;;;;4.00;2.38;;;3.60;99.90;;;;;;5051652;28;20056;-80
2023/12/23 11:59:45;;;;;;;3.05;1.77;;;3.60;99.90;;;;;;5036329;28;20022;-80
2023/12/23 12:02:11;;;;;;;5.82;2.85;;;3.60;99.90;;;;;;5035636;28;20497;-80
2023/12/23 12:04:37;;;;;;;9.05;4.30;;;3.70;99.90;;;;;;5051311;28;20038;-80
2023/12/23 12:07:03;;;;;;;21.27;9.75;;;3.60;99.90;;;;;;5050786;28;20029;-80
2023/12/23 12:09:29;;;;;;;11.60;6.80;;;3.60;99.90;;;;;;5035480;28;20025;-80
2023/12/23 12:11:55;;;;;;;6.40;3.58;;;3.60;99.90;;;;;;5034356;28;20035;-80
2023/12/23 12:14:21;;;;;;;5.30;3.03;;;3.50;99.90;;;;;;5036892;28;20025;-81
2023/12/23 12:16:46;;;;;;;4.82;3.00;;;3.50;99.90;;;;;;5038141;28;20064;-81
2023/12/23 12:19:13;;;;;;;3.67;2.40;;;3.50;99.90;;;;;;5057288;28;20115;-81
2023/12/23 12:21:39;;;;;;;7.28;4.20;;;3.60;99.90;;;;;;5076499;28;20033;-81
2023/12/23 12:24:05;;;;;;;8.50;4.60;;;3.60;99.90;;;;;;5075808;28;20039;-81
2023/12/23 12:26:31;;;;;;;6.30;3.67;;;3.60;99.90;;;;;;5075740;28;20056;-81
2023/12/23 12:28:57;;;;;;;7.70;3.20;;;3.70;99.90;;;;;;5074432;28;20032;-81
2023/12/23 12:31:23;;;;;;;4.45;2.42;;;3.70;99.90;;;;;;5076728;28;20033;-81
2023/12/23 12:33:50;;;;;;;2.75;1.42;;;3.80;99.90;;;;;;5073502;28;20473;-81
2023/12/23 12:36:16;;;;;;;3.00;1.58;;;3.90;99.90;;;;;;5073861;28;20024;-81
2023/12/23 12:38:45;;;;;;;3.05;1.38;;;4.00;99.90;;;;;;5074202;28;20405;-81
2023/12/23 12:41:12;;;;;;;2.28;1.35;;;4.10;99.90;;;;;;5075352;28;20067;-81
2023/12/23 12:43:39;;;;;;;2.88;1.25;;;4.10;99.90;;;;;;5065457;28;20037;-81
2023/12/23 12:46:06;;;;;;;3.80;1.92;;;4.10;99.90;;;;;;5054133;28;20029;-81
2023/12/23 12:48:31;;;;;;;3.58;2.03;;;4.10;99.90;;;;;;5037373;28;20048;-81
2023/12/23 12:50:57;;;;;;;4.65;2.30;;;4.10;99.90;;;;;;5065203;28;20029;-81